createdAt,value
2023-08-23T00:00:15.904Z,81.56
2023-08-23T00:01:23.424Z,81.56
2023-08-23T00:02:17.993Z,81.35
2023-08-23T00:03:15.972Z,81.26
2023-08-23T00:04:15.813Z,81.26
2023-08-23T00:05:15.812Z,81.35
2023-08-23T00:06:17.233Z,81.35
2023-08-23T00:07:17.284Z,81.46
2023-08-23T00:08:16.925Z,81.26
2023-08-23T00:09:16.991Z,81.26
2023-08-23T00:10:17.581Z,80.95
2023-08-23T00:11:17.057Z,80.95
2023-08-23T00:12:15.719Z,81.35
2023-08-23T00:13:16.259Z,81.29
2023-08-23T00:14:16.336Z,81.59
2023-08-23T00:15:15.726Z,81.70
2023-08-23T00:16:16.503Z,81.90
2023-08-23T00:17:20.749Z,82.10
2023-08-23T00:18:16.714Z,81.90
2023-08-23T00:19:18.338Z,81.79
2023-08-23T00:20:17.944Z,81.99
2023-08-23T00:21:18.530Z,81.79
2023-08-23T00:22:17.023Z,81.99
2023-08-23T00:23:15.645Z,81.90
2023-08-23T00:24:15.633Z,81.99
2023-08-23T00:25:16.886Z,82.40
2023-08-23T00:26:16.399Z,82.34
2023-08-23T00:27:17.060Z,82.44
2023-08-23T00:28:16.428Z,82.44
2023-08-23T00:29:16.611Z,82.54
2023-08-23T00:30:16.763Z,82.54
2023-08-23T00:31:17.425Z,82.64
2023-08-23T00:32:16.849Z,82.74
2023-08-23T00:33:15.582Z,82.54
2023-08-23T00:34:17.641Z,82.54
2023-08-23T00:35:17.776Z,82.64
2023-08-23T00:36:16.749Z,82.74
2023-08-23T00:37:15.812Z,82.84
2023-08-23T00:38:16.519Z,82.84
2023-08-23T00:39:16.707Z,82.84
2023-08-23T00:40:16.739Z,83.25
2023-08-23T00:41:16.737Z,83.25
2023-08-23T00:42:15.396Z,83.34
2023-08-23T00:43:19.707Z,83.34
2023-08-23T00:44:16.705Z,83.39
2023-08-23T00:45:16.830Z,83.48
2023-08-23T00:46:17.938Z,83.79
2023-08-23T00:47:16.560Z,83.79
2023-08-23T00:48:18.220Z,83.89
2023-08-23T00:49:15.315Z,83.89
2023-08-23T00:50:15.247Z,83.79
2023-08-23T00:51:16.021Z,83.79
2023-08-23T00:52:16.675Z,83.89
2023-08-23T00:53:16.294Z,83.89
2023-08-23T00:54:17.546Z,83.89
2023-08-23T00:55:17.103Z,83.99
2023-08-23T00:56:16.121Z,83.89
2023-08-23T00:57:15.152Z,83.99
2023-08-23T00:58:15.147Z,83.95
2023-08-23T00:59:16.509Z,83.99
2023-08-23T01:00:16.615Z,83.69
2023-08-23T01:01:16.882Z,83.69
2023-08-23T01:02:16.398Z,83.79
2023-08-23T01:03:16.426Z,83.79
2023-08-23T01:04:15.085Z,83.75
2023-08-23T01:05:16.748Z,83.65
2023-08-23T01:06:15.158Z,83.54
2023-08-23T01:07:17.057Z,83.75
2023-08-23T01:08:15.549Z,83.99
2023-08-23T01:09:16.165Z,84.19
2023-08-23T01:10:16.286Z,84.39
2023-08-23T01:11:17.486Z,84.29
2023-08-23T01:12:14.985Z,84.09
2023-08-23T01:13:17.182Z,84.09
2023-08-23T01:14:16.248Z,84.19
2023-08-23T01:15:15.075Z,84.19
2023-08-23T01:16:15.210Z,84.39
2023-08-23T01:17:16.098Z,84.49
2023-08-23T01:18:16.180Z,84.59
2023-08-23T01:19:16.223Z,84.59
2023-08-23T01:20:16.404Z,84.69
2023-08-23T01:21:14.838Z,84.80
2023-08-23T01:22:15.378Z,84.69
2023-08-23T01:23:16.138Z,84.80
2023-08-23T01:24:14.836Z,85.14
2023-08-23T01:25:16.361Z,84.83
2023-08-23T01:26:16.452Z,84.83
2023-08-23T01:27:15.906Z,84.94
2023-08-23T01:28:16.065Z,85.14
2023-08-23T01:29:15.183Z,85.34
2023-08-23T01:30:15.308Z,85.54
2023-08-23T01:31:14.787Z,85.64
2023-08-23T01:32:17.090Z,85.74
2023-08-23T01:33:15.981Z,85.84
2023-08-23T01:34:15.489Z,85.64
2023-08-23T01:35:19.300Z,85.64
2023-08-23T01:36:15.818Z,85.74
2023-08-23T01:37:19.039Z,85.74
2023-08-23T01:38:15.897Z,85.84
2023-08-23T01:39:14.625Z,85.84
2023-08-23T01:40:14.596Z,85.84
2023-08-23T01:41:14.601Z,86.04
2023-08-23T01:42:14.606Z,86.35
2023-08-23T01:43:15.788Z,86.44
2023-08-23T01:44:15.862Z,86.55
2023-08-23T01:45:15.984Z,86.65
2023-08-23T01:46:16.197Z,86.69
2023-08-23T01:47:15.583Z,86.18
2023-08-23T01:48:15.685Z,86.18
2023-08-23T01:49:15.968Z,85.88
2023-08-23T01:50:14.456Z,85.88
2023-08-23T01:51:14.432Z,86.18
2023-08-23T01:52:14.448Z,86.49
2023-08-23T01:53:15.513Z,86.69
2023-08-23T01:54:15.589Z,86.79
2023-08-23T01:55:15.656Z,86.93
2023-08-23T01:56:15.689Z,87.09
2023-08-23T01:57:14.352Z,87.19
2023-08-23T01:58:14.378Z,87.03
2023-08-23T01:59:14.356Z,86.99
2023-08-23T02:00:15.749Z,87.29
2023-08-23T02:01:15.837Z,87.19
2023-08-23T02:02:15.394Z,86.99
2023-08-23T02:03:15.590Z,87.09
2023-08-23T02:04:16.183Z,87.09
2023-08-23T02:05:15.578Z,86.99
2023-08-23T02:06:14.276Z,86.79
2023-08-23T02:07:15.435Z,86.58
2023-08-23T02:08:15.549Z,86.49
2023-08-23T02:09:15.200Z,86.58
2023-08-23T02:10:15.382Z,86.58
2023-08-23T02:11:15.262Z,86.58
2023-08-23T02:12:15.419Z,86.69
2023-08-23T02:13:16.574Z,86.69
2023-08-23T02:14:14.156Z,86.79
2023-08-23T02:15:14.114Z,86.89
2023-08-23T02:16:15.482Z,86.83
2023-08-23T02:17:15.523Z,86.83
2023-08-23T02:18:17.450Z,86.93
2023-08-23T02:19:17.311Z,87.23
2023-08-23T02:20:15.853Z,87.34
2023-08-23T02:21:15.334Z,87.43
2023-08-23T02:22:14.039Z,87.34
2023-08-23T02:23:14.036Z,87.13
2023-08-23T02:24:14.075Z,87.03
2023-08-23T02:25:15.461Z,87.03
2023-08-23T02:26:15.106Z,87.23
2023-08-23T02:27:15.280Z,87.43
2023-08-23T02:28:15.184Z,87.74
2023-08-23T02:29:15.335Z,87.84
2023-08-23T02:30:13.980Z,87.84
2023-08-23T02:31:13.985Z,87.94
2023-08-23T02:32:13.951Z,88.14
2023-08-23T02:33:13.873Z,88.24
2023-08-23T02:34:15.434Z,88.24
2023-08-23T02:35:15.058Z,88.24
2023-08-23T02:36:15.198Z,88.24
2023-08-23T02:37:15.326Z,88.54
2023-08-23T02:38:13.791Z,88.85
2023-08-23T02:39:13.799Z,88.95
2023-08-23T02:40:13.791Z,89.05
2023-08-23T02:41:14.946Z,89.05
2023-08-23T02:42:15.344Z,89.15
2023-08-23T02:43:17.234Z,89.15
2023-08-23T02:44:14.915Z,89.05
2023-08-23T02:45:15.070Z,88.95
2023-08-23T02:46:13.756Z,88.85
2023-08-23T02:47:13.721Z,88.65
2023-08-23T02:48:15.115Z,88.45
2023-08-23T02:49:15.154Z,88.04
2023-08-23T02:50:15.273Z,88.04
2023-08-23T02:51:14.752Z,88.18
2023-08-23T02:52:14.921Z,88.28
2023-08-23T02:53:13.658Z,88.48
2023-08-23T02:54:14.223Z,88.48
2023-08-23T02:55:13.636Z,88.59
2023-08-23T02:56:13.631Z,88.59
2023-08-23T02:57:15.482Z,88.59
2023-08-23T02:58:14.748Z,88.39
2023-08-23T02:59:14.801Z,88.39
2023-08-23T03:00:16.406Z,88.59
2023-08-23T03:01:13.596Z,88.79
2023-08-23T03:02:13.521Z,88.79
2023-08-23T03:03:13.480Z,88.89
2023-08-23T03:04:13.483Z,88.89
2023-08-23T03:05:15.000Z,88.93
2023-08-23T03:06:14.624Z,89.23
2023-08-23T03:07:14.751Z,89.43
2023-08-23T03:08:14.916Z,89.34
2023-08-23T03:09:13.394Z,89.43
2023-08-23T03:10:14.602Z,89.34
2023-08-23T03:11:13.396Z,89.43
2023-08-23T03:12:14.873Z,89.54
2023-08-23T03:13:18.541Z,89.43
2023-08-23T03:14:15.113Z,89.54
2023-08-23T03:15:15.253Z,89.54
2023-08-23T03:16:13.327Z,89.74
2023-08-23T03:17:13.314Z,89.84
2023-08-23T03:18:14.026Z,89.98
2023-08-23T03:19:14.686Z,90.19
2023-08-23T03:20:14.279Z,90.28
2023-08-23T03:21:15.386Z,90.49
2023-08-23T03:22:15.052Z,90.49
2023-08-23T03:23:16.129Z,90.83
2023-08-23T03:24:14.182Z,90.94
2023-08-23T03:25:13.238Z,91.14
2023-08-23T03:26:13.916Z,91.24
2023-08-23T03:27:14.561Z,91.34
2023-08-23T03:28:15.013Z,91.44
2023-08-23T03:29:14.184Z,91.44
2023-08-23T03:30:15.059Z,91.34
2023-08-23T03:31:15.127Z,91.44
2023-08-23T03:32:14.164Z,91.58
2023-08-23T03:33:13.070Z,91.58
2023-08-23T03:34:13.156Z,91.54
2023-08-23T03:35:13.237Z,91.34
2023-08-23T03:36:14.626Z,91.24
2023-08-23T03:37:14.174Z,91.03
2023-08-23T03:38:14.384Z,90.83
2023-08-23T03:39:14.517Z,90.73
2023-08-23T03:40:12.993Z,90.73
2023-08-23T03:41:12.992Z,90.73
2023-08-23T03:42:13.015Z,90.83
2023-08-23T03:43:14.472Z,90.83
2023-08-23T03:44:14.094Z,90.73
2023-08-23T03:45:14.229Z,90.83
2023-08-23T03:46:14.346Z,91.14
2023-08-23T03:47:12.917Z,91.44
2023-08-23T03:48:13.389Z,91.44
2023-08-23T03:49:13.535Z,91.44
2023-08-23T03:50:13.705Z,91.44
2023-08-23T03:51:13.860Z,91.24
2023-08-23T03:52:15.124Z,91.03
2023-08-23T03:53:19.305Z,91.03
2023-08-23T03:54:14.098Z,91.14
2023-08-23T03:55:13.223Z,91.24
2023-08-23T03:56:14.429Z,91.44
2023-08-23T03:57:12.766Z,91.54
2023-08-23T03:58:14.231Z,91.64
2023-08-23T03:59:14.314Z,91.64
2023-08-23T04:00:13.768Z,91.74
2023-08-23T04:01:13.919Z,91.74
2023-08-23T04:02:14.102Z,91.64
2023-08-23T04:03:12.827Z,91.64
2023-08-23T04:04:12.753Z,91.54
2023-08-23T04:05:12.761Z,91.44
2023-08-23T04:06:14.185Z,91.44
2023-08-23T04:07:13.799Z,91.34
2023-08-23T04:08:13.764Z,91.34
2023-08-23T04:09:14.654Z,91.24
2023-08-23T04:10:12.585Z,91.34
2023-08-23T04:11:20.389Z,91.34
2023-08-23T04:12:12.595Z,91.44
2023-08-23T04:13:18.656Z,91.34
2023-08-23T04:14:13.697Z,91.24
2023-08-23T04:15:13.870Z,91.24
2023-08-23T04:16:14.487Z,91.14
2023-08-23T04:17:13.559Z,91.14
2023-08-23T04:18:13.742Z,91.34
2023-08-23T04:19:13.789Z,91.49
2023-08-23T04:20:13.959Z,91.49
2023-08-23T04:21:13.626Z,91.58
2023-08-23T04:22:13.737Z,91.58
2023-08-23T04:23:13.858Z,91.69
2023-08-23T04:24:12.429Z,91.78
2023-08-23T04:25:12.422Z,91.99
2023-08-23T04:26:13.682Z,92.09
2023-08-23T04:27:12.425Z,92.19
2023-08-23T04:28:13.372Z,92.29
2023-08-23T04:29:13.542Z,92.29
2023-08-23T04:30:14.140Z,92.44
2023-08-23T04:31:13.602Z,92.64
2023-08-23T04:32:12.517Z,92.74
2023-08-23T04:33:12.351Z,92.84
2023-08-23T04:34:13.058Z,92.84
2023-08-23T04:35:14.191Z,92.94
2023-08-23T04:36:13.878Z,92.94
2023-08-23T04:37:13.981Z,93.04
2023-08-23T04:38:19.290Z,93.15
2023-08-23T04:39:14.229Z,93.15
2023-08-23T04:40:12.249Z,93.08
2023-08-23T04:41:12.195Z,92.99
2023-08-23T04:42:12.191Z,93.08
2023-08-23T04:43:13.698Z,93.29
2023-08-23T04:44:13.373Z,93.39
2023-08-23T04:45:13.282Z,93.49
2023-08-23T04:46:13.499Z,93.70
2023-08-23T04:47:12.121Z,93.79
2023-08-23T04:48:12.129Z,93.90
2023-08-23T04:49:12.896Z,93.90
2023-08-23T04:50:13.082Z,93.90
2023-08-23T04:51:13.601Z,94.00
2023-08-23T04:52:13.240Z,94.10
2023-08-23T04:53:13.369Z,94.10
2023-08-23T04:54:13.440Z,94.30
2023-08-23T04:55:12.029Z,94.30
2023-08-23T04:56:12.029Z,94.30
2023-08-23T04:57:12.042Z,94.40
2023-08-23T04:58:13.426Z,94.40
2023-08-23T04:59:13.048Z,94.50
2023-08-23T05:00:13.118Z,94.60
2023-08-23T05:01:13.785Z,94.71
2023-08-23T05:02:13.189Z,94.71
2023-08-23T05:03:11.876Z,94.71
2023-08-23T05:04:12.496Z,95.01
2023-08-23T05:05:12.070Z,95.11
2023-08-23T05:06:11.963Z,95.21
2023-08-23T05:07:14.382Z,95.21
2023-08-23T05:08:14.504Z,95.11
2023-08-23T05:09:13.031Z,95.01
2023-08-23T05:10:13.184Z,95.01
2023-08-23T05:11:11.795Z,94.91
2023-08-23T05:12:11.790Z,94.81
2023-08-23T05:13:12.488Z,94.81
2023-08-23T05:14:12.544Z,94.81
2023-08-23T05:15:13.128Z,94.71
2023-08-23T05:16:14.293Z,94.66
2023-08-23T05:17:12.756Z,94.66
2023-08-23T05:18:14.509Z,94.66
2023-08-23T05:19:13.586Z,94.76
2023-08-23T05:20:19.915Z,94.91
2023-08-23T05:21:11.706Z,95.01
2023-08-23T05:22:11.669Z,95.11
2023-08-23T05:23:11.645Z,95.21
2023-08-23T05:24:13.082Z,95.42
2023-08-23T05:25:11.767Z,95.62
2023-08-23T05:26:12.828Z,95.62
2023-08-23T05:27:12.958Z,95.72
2023-08-23T05:28:12.994Z,95.62
2023-08-23T05:29:11.548Z,95.62
2023-08-23T05:30:12.806Z,95.57
2023-08-23T05:31:12.955Z,95.47
2023-08-23T05:32:13.015Z,95.47
2023-08-23T05:33:12.710Z,95.47
2023-08-23T05:34:12.774Z,95.47
2023-08-23T05:35:12.910Z,95.47
2023-08-23T05:36:13.009Z,95.27
2023-08-23T05:37:12.057Z,95.17
2023-08-23T05:38:12.029Z,95.07
2023-08-23T05:39:12.814Z,95.07
2023-08-23T05:40:12.924Z,95.02
2023-08-23T05:41:13.013Z,94.92
2023-08-23T05:42:12.445Z,94.82
2023-08-23T05:43:12.570Z,94.72
2023-08-23T05:44:12.738Z,94.62
2023-08-23T05:45:11.868Z,94.62
2023-08-23T05:46:12.108Z,94.62
2023-08-23T05:47:11.934Z,94.51
2023-08-23T05:48:12.715Z,94.62
2023-08-23T05:49:12.287Z,94.57
2023-08-23T05:50:11.550Z,94.57
2023-08-23T05:51:13.514Z,94.57
2023-08-23T05:52:12.484Z,94.47
2023-08-23T05:53:12.646Z,94.47
2023-08-23T05:54:11.249Z,94.57
2023-08-23T05:55:11.232Z,94.57
2023-08-23T05:56:11.256Z,94.47
2023-08-23T05:57:11.233Z,94.47
2023-08-23T05:58:12.712Z,94.47
2023-08-23T05:59:12.313Z,94.47
2023-08-23T06:00:12.430Z,94.32
2023-08-23T06:01:12.419Z,94.32
2023-08-23T06:02:13.542Z,94.23
2023-08-23T06:03:11.276Z,94.23
2023-08-23T06:04:11.085Z,94.12
2023-08-23T06:05:11.071Z,94.23
2023-08-23T06:06:12.554Z,94.12
2023-08-23T06:07:12.308Z,94.12
2023-08-23T06:08:12.343Z,94.23
2023-08-23T06:09:12.470Z,94.12
2023-08-23T06:10:11.075Z,94.12
2023-08-23T06:11:10.993Z,94.12
2023-08-23T06:12:10.999Z,94.23
2023-08-23T06:13:11.745Z,94.23
2023-08-23T06:14:12.494Z,94.23
2023-08-23T06:15:12.101Z,94.32
2023-08-23T06:16:12.693Z,94.43
2023-08-23T06:17:12.125Z,94.38
2023-08-23T06:18:12.346Z,94.38
2023-08-23T06:19:10.921Z,94.38
2023-08-23T06:20:10.915Z,94.48
2023-08-23T06:21:10.915Z,94.38
2023-08-23T06:22:12.273Z,94.38
2023-08-23T06:23:11.806Z,94.38
2023-08-23T06:24:11.977Z,94.28
2023-08-23T06:25:12.133Z,94.24
2023-08-23T06:26:13.240Z,94.24
2023-08-23T06:27:12.432Z,94.24
2023-08-23T06:28:11.372Z,94.13
2023-08-23T06:29:12.077Z,94.04
2023-08-23T06:30:12.138Z,93.93
2023-08-23T06:31:12.235Z,93.84
2023-08-23T06:32:11.709Z,93.84
2023-08-23T06:33:11.888Z,93.73
2023-08-23T06:34:13.152Z,93.73
2023-08-23T06:35:11.651Z,93.69
2023-08-23T06:36:10.687Z,93.69
2023-08-23T06:37:10.692Z,93.59
2023-08-23T06:38:11.481Z,93.59
2023-08-23T06:39:20.137Z,93.59
2023-08-23T06:40:12.783Z,93.49
2023-08-23T06:41:11.904Z,93.49
2023-08-23T06:42:11.940Z,93.59
2023-08-23T06:43:12.039Z,93.65
2023-08-23T06:44:10.602Z,93.65
2023-08-23T06:45:10.639Z,93.65
2023-08-23T06:46:11.471Z,93.54
2023-08-23T06:47:12.081Z,93.54
2023-08-23T06:48:12.073Z,93.44
2023-08-23T06:49:11.666Z,93.34
2023-08-23T06:50:16.448Z,93.19
2023-08-23T06:51:12.890Z,93.19
2023-08-23T06:52:11.428Z,93.19
2023-08-23T06:53:11.683Z,93.19
2023-08-23T06:54:10.441Z,93.10
2023-08-23T06:55:10.446Z,93.30
2023-08-23T06:56:11.925Z,93.35
2023-08-23T06:57:12.509Z,93.35
2023-08-23T06:58:13.108Z,93.35
2023-08-23T06:59:13.208Z,93.26
2023-08-23T07:00:11.847Z,93.26
2023-08-23T07:01:11.399Z,93.11
2023-08-23T07:02:10.894Z,93.01
2023-08-23T07:03:10.445Z,92.91
2023-08-23T07:04:11.153Z,92.80
2023-08-23T07:05:11.767Z,92.71
2023-08-23T07:06:11.263Z,92.71
2023-08-23T07:07:11.458Z,92.71
2023-08-23T07:08:12.604Z,92.66
2023-08-23T07:09:11.483Z,92.66
2023-08-23T07:10:26.947Z,92.86
2023-08-23T07:11:11.649Z,92.76
2023-08-23T07:12:10.218Z,92.66
2023-08-23T07:13:11.010Z,92.52
2023-08-23T07:14:11.656Z,92.22
2023-08-23T07:15:10.325Z,92.11
2023-08-23T07:16:11.432Z,92.02
2023-08-23T07:17:11.398Z,92.02
2023-08-23T07:18:11.704Z,92.07
2023-08-23T07:19:10.656Z,91.97
2023-08-23T07:20:10.733Z,91.87
2023-08-23T07:21:10.880Z,91.77
2023-08-23T07:22:10.106Z,91.77
2023-08-23T07:23:10.915Z,91.77
2023-08-23T07:24:11.068Z,91.67
2023-08-23T07:25:11.243Z,91.63
2023-08-23T07:26:11.386Z,91.52
2023-08-23T07:27:12.510Z,91.72
2023-08-23T07:28:10.437Z,91.63
2023-08-23T07:29:09.947Z,91.52
2023-08-23T07:30:09.949Z,91.22
2023-08-23T07:31:09.988Z,91.02
2023-08-23T07:32:11.416Z,90.98
2023-08-23T07:33:11.088Z,90.88
2023-08-23T07:34:11.143Z,90.98
2023-08-23T07:35:12.223Z,91.08
2023-08-23T07:36:11.478Z,91.08
2023-08-23T07:37:09.871Z,90.98
2023-08-23T07:38:10.490Z,90.94
2023-08-23T07:39:10.666Z,90.73
2023-08-23T07:40:11.382Z,90.53
2023-08-23T07:41:10.986Z,90.23
2023-08-23T07:42:11.583Z,89.94
2023-08-23T07:43:11.045Z,89.83
2023-08-23T07:44:09.791Z,89.69
2023-08-23T07:45:11.137Z,89.49
2023-08-23T07:46:10.589Z,89.49
2023-08-23T07:47:11.172Z,89.18
2023-08-23T07:48:10.865Z,89.29
2023-08-23T07:49:10.949Z,88.99
2023-08-23T07:50:11.051Z,88.75
2023-08-23T07:51:11.047Z,88.54
2023-08-23T07:52:09.715Z,88.34
2023-08-23T07:53:10.237Z,87.94
2023-08-23T07:54:10.340Z,87.44
2023-08-23T07:55:09.636Z,86.04
2023-08-23T07:56:12.141Z,85.80
2023-08-23T07:57:11.138Z,85.89
2023-08-23T07:58:11.673Z,85.89
2023-08-23T07:59:11.761Z,85.49
2023-08-23T08:00:10.828Z,84.69
2023-08-23T08:01:12.463Z,84.69
2023-08-23T08:02:11.513Z,83.95
2023-08-23T08:03:11.623Z,83.85
2023-08-23T08:04:11.080Z,83.65
2023-08-23T08:05:12.188Z,83.35
2023-08-23T08:06:10.172Z,82.55
2023-08-23T08:07:09.468Z,82.45
2023-08-23T08:08:10.969Z,82.41
2023-08-23T08:09:10.983Z,81.61
2023-08-23T08:10:11.073Z,81.61
2023-08-23T08:11:10.656Z,81.91
2023-08-23T08:12:12.213Z,82.31
2023-08-23T08:13:13.147Z,81.61
2023-08-23T08:14:10.388Z,81.37
2023-08-23T08:15:09.921Z,81.07
2023-08-23T08:16:10.151Z,78.56
2023-08-23T08:17:09.419Z,77.26
2023-08-23T08:18:10.243Z,77.76
2023-08-23T08:19:11.169Z,77.33
2023-08-23T08:20:10.440Z,77.93
2023-08-23T08:21:10.530Z,77.83
2023-08-23T08:22:10.631Z,76.63
2023-08-23T08:23:11.241Z,74.03
2023-08-23T08:24:12.310Z,73.99
2023-08-23T08:25:10.121Z,73.39
2023-08-23T08:26:10.391Z,73.99
2023-08-23T08:27:10.472Z,72.49
2023-08-23T08:28:10.576Z,72.29
2023-08-23T08:29:10.806Z,72.79
2023-08-23T08:30:10.771Z,74.16
2023-08-23T08:31:10.428Z,74.05
2023-08-23T08:32:10.433Z,73.46
2023-08-23T08:33:10.581Z,73.96
2023-08-23T08:34:12.107Z,74.05
2023-08-23T08:35:10.186Z,73.96
2023-08-23T08:36:11.562Z,74.02
2023-08-23T08:37:09.776Z,73.52
2023-08-23T08:38:09.876Z,73.82
2023-08-23T08:39:10.470Z,72.72
2023-08-23T08:40:10.549Z,73.12
2023-08-23T08:41:11.689Z,72.42
2023-08-23T08:42:10.261Z,72.32
2023-08-23T08:43:11.860Z,72.78
2023-08-23T08:44:10.330Z,72.29
2023-08-23T08:45:12.004Z,72.49
2023-08-23T08:46:09.578Z,71.19
2023-08-23T08:47:12.143Z,71.49
2023-08-23T08:48:10.205Z,71.99
2023-08-23T08:49:10.269Z,72.39
2023-08-23T08:50:09.755Z,73.09
2023-08-23T08:51:10.362Z,71.89
2023-08-23T08:52:10.982Z,70.99
2023-08-23T08:53:11.566Z,71.39
2023-08-23T08:54:10.645Z,72.09
2023-08-23T08:55:10.750Z,72.75
2023-08-23T08:56:11.831Z,73.85
2023-08-23T08:57:09.338Z,74.75
2023-08-23T08:58:09.433Z,74.35
2023-08-23T08:59:09.556Z,73.85
2023-08-23T09:00:10.145Z,72.45
2023-08-23T09:01:10.230Z,74.65
2023-08-23T09:02:10.267Z,74.85
2023-08-23T09:03:10.977Z,73.35
2023-08-23T09:04:10.005Z,73.61
2023-08-23T09:05:10.079Z,72.52
2023-08-23T09:06:10.609Z,72.52
2023-08-23T09:07:10.848Z,71.82
2023-08-23T09:08:09.219Z,72.42
2023-08-23T09:09:09.337Z,71.42
2023-08-23T09:10:11.947Z,72.42
2023-08-23T09:11:09.510Z,70.83
2023-08-23T09:12:11.062Z,70.53
2023-08-23T09:13:10.062Z,70.39
2023-08-23T09:14:10.186Z,70.59
2023-08-23T09:15:10.241Z,70.79
2023-08-23T09:16:11.405Z,71.39
2023-08-23T09:17:09.966Z,71.89
2023-08-23T09:18:12.629Z,70.29
2023-08-23T09:19:09.539Z,68.19
2023-08-23T09:20:09.596Z,68.49
2023-08-23T09:21:09.203Z,69.79
2023-08-23T09:22:09.284Z,68.90
2023-08-23T09:23:09.849Z,69.29
2023-08-23T09:24:09.500Z,69.96
2023-08-23T09:25:09.797Z,69.16
2023-08-23T09:26:09.598Z,67.57
2023-08-23T09:27:14.943Z,66.87
2023-08-23T09:28:10.837Z,67.36
2023-08-23T09:29:10.406Z,65.57
2023-08-23T09:30:09.158Z,65.47
2023-08-23T09:31:08.459Z,66.07
2023-08-23T09:32:11.136Z,66.17
2023-08-23T09:33:09.269Z,65.74
2023-08-23T09:34:08.595Z,65.14
2023-08-23T09:35:09.843Z,65.47
2023-08-23T09:36:09.903Z,64.87
2023-08-23T09:37:09.500Z,64.48
2023-08-23T09:38:09.568Z,65.14
2023-08-23T09:39:09.634Z,65.05
2023-08-23T09:40:09.746Z,64.25
2023-08-23T09:41:10.269Z,65.24
2023-08-23T09:42:10.362Z,65.24
2023-08-23T09:43:11.025Z,65.14
2023-08-23T09:44:09.018Z,65.71
2023-08-23T09:45:10.601Z,65.51
2023-08-23T09:46:08.340Z,65.51
2023-08-23T09:47:11.881Z,65.38
2023-08-23T09:48:09.794Z,65.58
2023-08-23T09:49:09.445Z,65.38
2023-08-23T09:50:11.019Z,65.64
2023-08-23T09:51:10.528Z,63.46
2023-08-23T09:52:10.684Z,62.07
2023-08-23T09:53:10.590Z,61.40
2023-08-23T09:54:09.172Z,60.80
2023-08-23T09:55:14.849Z,62.59
2023-08-23T09:56:10.346Z,62.29
2023-08-23T09:57:09.952Z,62.19
2023-08-23T09:58:09.491Z,62.19
2023-08-23T09:59:09.052Z,63.09
2023-08-23T10:00:10.224Z,62.19
2023-08-23T10:01:09.768Z,63.19
2023-08-23T10:02:09.859Z,62.59
2023-08-23T10:03:09.472Z,62.49
2023-08-23T10:04:08.590Z,65.28
2023-08-23T10:05:09.445Z,64.15
2023-08-23T10:06:10.620Z,62.76
2023-08-23T10:07:08.118Z,61.37
2023-08-23T10:08:08.637Z,61.17
2023-08-23T10:09:10.123Z,61.07
2023-08-23T10:10:11.013Z,61.17
2023-08-23T10:11:11.124Z,60.97
2023-08-23T10:12:10.189Z,60.77
2023-08-23T10:13:09.284Z,61.17
2023-08-23T10:14:09.638Z,61.37
2023-08-23T10:15:09.874Z,61.37
2023-08-23T10:16:09.558Z,61.04
2023-08-23T10:17:09.578Z,61.64
2023-08-23T10:18:11.200Z,64.32
2023-08-23T10:19:09.891Z,62.93
2023-08-23T10:20:09.750Z,62.30
2023-08-23T10:21:10.386Z,61.31
2023-08-23T10:22:08.357Z,60.82
2023-08-23T10:23:08.919Z,62.21
2023-08-23T10:24:09.941Z,61.01
2023-08-23T10:25:09.681Z,62.10
2023-08-23T10:26:11.750Z,61.11
2023-08-23T10:27:09.769Z,61.11
2023-08-23T10:28:11.900Z,61.91
2023-08-23T10:29:09.461Z,61.31
2023-08-23T10:30:20.689Z,61.51
2023-08-23T10:31:20.025Z,61.21
2023-08-23T10:32:10.729Z,60.91
2023-08-23T10:33:09.854Z,59.30
2023-08-23T10:34:09.804Z,59.39
2023-08-23T10:35:08.837Z,60.78
2023-08-23T10:36:09.991Z,61.88
2023-08-23T10:37:09.961Z,60.96
2023-08-23T10:38:10.649Z,61.85
2023-08-23T10:39:09.272Z,61.32
2023-08-23T10:40:09.705Z,60.63
2023-08-23T10:41:09.850Z,58.94
2023-08-23T10:42:12.088Z,59.53
2023-08-23T10:43:10.597Z,57.75
2023-08-23T10:44:09.585Z,58.74
2023-08-23T10:45:09.072Z,59.93
2023-08-23T10:46:08.544Z,59.74
2023-08-23T10:47:11.427Z,61.52
2023-08-23T10:48:12.373Z,59.93
2023-08-23T10:49:08.189Z,58.25
2023-08-23T10:50:09.470Z,57.45
2023-08-23T10:51:09.047Z,57.25
2023-08-23T10:52:09.123Z,57.65
2023-08-23T10:53:10.208Z,58.54
2023-08-23T10:54:11.404Z,56.26
2023-08-23T10:55:09.270Z,56.56
2023-08-23T10:56:09.458Z,57.75
2023-08-23T10:57:09.996Z,59.44
2023-08-23T10:58:09.571Z,55.66
2023-08-23T10:59:11.137Z,55.74
2023-08-23T11:00:09.548Z,56.63
2023-08-23T11:01:08.690Z,56.04
2023-08-23T11:02:08.848Z,56.53
2023-08-23T11:03:08.152Z,55.83
2023-08-23T11:04:08.915Z,56.53
2023-08-23T11:05:11.119Z,56.43
2023-08-23T11:06:09.105Z,60.00
2023-08-23T11:07:10.145Z,58.19
2023-08-23T11:08:09.858Z,58.69
2023-08-23T11:09:09.343Z,57.89
2023-08-23T11:10:09.420Z,58.78
2023-08-23T11:11:09.619Z,58.78
2023-08-23T11:12:09.571Z,59.67
2023-08-23T11:13:09.618Z,57.10
2023-08-23T11:14:08.191Z,58.46
2023-08-23T11:15:09.811Z,57.27
2023-08-23T11:16:08.856Z,57.86
2023-08-23T11:17:09.972Z,55.49
2023-08-23T11:18:10.506Z,55.41
2023-08-23T11:19:09.513Z,55.71
2023-08-23T11:20:10.171Z,56.60
2023-08-23T11:21:09.654Z,57.00
2023-08-23T11:22:09.767Z,55.91
2023-08-23T11:23:10.961Z,55.71
2023-08-23T11:24:09.464Z,56.21
2023-08-23T11:25:09.449Z,56.63
2023-08-23T11:26:09.597Z,57.42
2023-08-23T11:27:08.595Z,58.81
2023-08-23T11:28:08.835Z,58.29
2023-08-23T11:29:08.780Z,58.39
2023-08-23T11:30:11.458Z,56.68
2023-08-23T11:31:09.222Z,56.57
2023-08-23T11:32:10.059Z,55.76
2023-08-23T11:33:08.609Z,54.57
2023-08-23T11:34:10.711Z,52.69
2023-08-23T11:35:09.182Z,51.18
2023-08-23T11:36:09.157Z,51.47
2023-08-23T11:37:10.574Z,54.14
2023-08-23T11:38:10.006Z,53.45
2023-08-23T11:39:09.504Z,53.65
2023-08-23T11:40:10.649Z,54.81
2023-08-23T11:41:10.689Z,53.63
2023-08-23T11:42:10.295Z,54.49
2023-08-23T11:43:20.696Z,54.69
2023-08-23T11:44:08.800Z,55.15
2023-08-23T11:45:11.049Z,51.82
2023-08-23T11:46:09.584Z,52.41
2023-08-23T11:47:08.754Z,55.08
2023-08-23T11:48:09.185Z,53.99
2023-08-23T11:49:10.223Z,54.42
2023-08-23T11:50:08.720Z,53.53
2023-08-23T11:51:09.370Z,53.13
2023-08-23T11:52:09.664Z,52.64
2023-08-23T11:53:10.920Z,53.25
2023-08-23T11:54:09.498Z,53.13
2023-08-23T11:55:09.631Z,55.11
2023-08-23T11:56:10.149Z,55.73
2023-08-23T11:57:09.777Z,57.18
2023-08-23T11:58:08.764Z,55.01
2023-08-23T11:59:08.792Z,54.98
2023-08-23T12:00:08.212Z,56.93
2023-08-23T12:01:10.179Z,53.97
2023-08-23T12:02:13.066Z,55.94
2023-08-23T12:03:10.218Z,56.14
2023-08-23T12:04:07.004Z,54.44
2023-08-23T12:05:09.825Z,53.94
2023-08-23T12:06:07.291Z,54.44
2023-08-23T12:07:10.988Z,55.30
2023-08-23T12:08:07.370Z,55.30
2023-08-23T12:09:09.565Z,51.57
2023-08-23T12:10:07.423Z,53.75
2023-08-23T12:11:10.325Z,55.13
2023-08-23T12:12:07.758Z,53.85
2023-08-23T12:13:08.281Z,53.15
2023-08-23T12:14:08.171Z,52.73
2023-08-23T12:15:10.584Z,52.93
2023-08-23T12:16:10.648Z,52.91
2023-08-23T12:17:07.000Z,53.10
2023-08-23T12:18:10.298Z,52.21
2023-08-23T12:19:25.448Z,53.00
2023-08-23T12:20:08.186Z,52.21
2023-08-23T12:21:09.157Z,54.48
2023-08-23T12:22:07.298Z,53.47
2023-08-23T12:23:07.976Z,55.24
2023-08-23T12:24:08.087Z,53.96
2023-08-23T12:25:07.516Z,53.17
2023-08-23T12:26:09.405Z,52.75
2023-08-23T12:27:06.212Z,53.74
2023-08-23T12:28:06.109Z,53.44
2023-08-23T12:29:06.897Z,51.94
2023-08-23T12:30:07.290Z,51.03
2023-08-23T12:31:06.209Z,49.77
2023-08-23T12:32:07.543Z,49.48
2023-08-23T12:33:06.316Z,50.09
2023-08-23T12:34:07.163Z,51.50
2023-08-23T12:35:07.114Z,50.90
2023-08-23T12:36:07.328Z,51.52
2023-08-23T12:37:07.398Z,50.76
2023-08-23T12:38:07.309Z,51.84
2023-08-23T12:39:05.977Z,53.12
2023-08-23T12:40:06.022Z,52.63
2023-08-23T12:41:06.508Z,50.07
2023-08-23T12:42:07.171Z,49.96
2023-08-23T12:43:06.035Z,50.26
2023-08-23T12:44:07.256Z,51.84
2023-08-23T12:45:07.342Z,51.54
2023-08-23T12:46:07.314Z,53.12
2023-08-23T12:47:06.962Z,50.56
2023-08-23T12:48:07.207Z,49.57
2023-08-23T12:49:07.156Z,48.49
2023-08-23T12:50:08.417Z,49.55
2023-08-23T12:51:07.763Z,50.93
2023-08-23T12:52:05.799Z,49.43